CYWJ

Déline Airport

Déline, Northwest Territories, Canada
METAR CYWJ 232200Z 34006KT 40SM SCT090 BKN200 10/M04 A2964 RMK AS3CS4 10.3/4.2/0/0 LAST STFD OBS/NXT 241300UTC SLP053
Observed Flight Rules
Sep-23 @ 22:00 UTC (14 hours ago) Visual Flight Rules
Wind Visibility Clouds
340° at 6 knots 40 miles
  • Scattered at 9,000' AGL
  • Broken at 20,000' AGL
Temperatures Readings
Current 10°C / 50°F
Dewpoint -4°C / 25°F
Humidity 37%
Altimeter 29.64" Hg
Pressure 1005.3 hPa
Elevation 176
METAR CYWJ 232200Z 34006KT 40SM SCT090 BKN200 10/M04 A2964 RMK AS3CS4 10.3/4.2/0/0 LAST STFD OBS/NXT 241300UTC SLP053
Observed Flight Rules
Sep-23 @ 22:00 UTC
(14 hours ago)
VFR
Wind Visibility
340° at 6 knots 40 miles
Clouds
  • Scattered at 9,000' AGL
  • Broken at 20,000' AGL
Temperature Dewpoint
10°C / 50°F -4°C / 25°F
Humidity Altimeter Pressure
37% 29.64" Hg 1005.3 hPa